createdAt,value
2022-07-30T00:03:45.025Z,7.23
2022-07-30T00:08:52.577Z,9.33
2022-07-30T00:13:57.586Z,12.30
2022-07-30T00:19:02.614Z,8.97
2022-07-30T00:24:11.278Z,8.73
2022-07-30T00:29:16.429Z,6.40
2022-07-30T00:34:21.583Z,9.53
2022-07-30T00:39:30.665Z,9.93
2022-07-30T00:44:35.860Z,12.33
2022-07-30T00:49:46.338Z,13.67
2022-07-30T00:54:54.021Z,9.13
2022-07-30T00:59:59.307Z,10.37
2022-07-30T01:05:04.142Z,7.17
2022-07-30T01:10:14.039Z,7.00
2022-07-30T01:15:22.588Z,9.13
2022-07-30T01:20:32.865Z,6.63
2022-07-30T01:25:55.712Z,6.77
2022-07-30T01:31:01.918Z,8.57
2022-07-30T01:36:11.710Z,5.77
2022-07-30T01:41:22.299Z,8.13
2022-07-30T01:46:28.495Z,5.40
2022-07-30T01:51:37.358Z,6.50
2022-07-30T01:56:47.433Z,6.60
2022-07-30T02:01:52.478Z,7.83
2022-07-30T02:07:04.337Z,6.17
2022-07-30T02:12:32.828Z,7.23
2022-07-30T02:17:53.346Z,7.77
2022-07-30T02:23:03.721Z,7.43
2022-07-30T02:28:14.406Z,7.90
2022-07-30T02:33:23.928Z,9.10
2022-07-30T02:38:32.935Z,8.57
2022-07-30T02:43:40.796Z,9.90
2022-07-30T02:48:49.141Z,8.03
2022-07-30T02:53:56.474Z,7.87
2022-07-30T02:59:06.102Z,8.37
2022-07-30T03:04:12.132Z,9.00
2022-07-30T03:09:19.098Z,6.60
2022-07-30T03:14:27.237Z,9.30
2022-07-30T03:19:35.881Z,6.57
2022-07-30T03:24:43.783Z,6.30
2022-07-30T03:29:55.362Z,7.57
2022-07-30T03:35:06.194Z,9.53
2022-07-30T03:40:13.835Z,7.20
2022-07-30T03:45:23.211Z,9.30
2022-07-30T03:50:31.126Z,6.90
2022-07-30T03:55:36.752Z,11.00
2022-07-30T04:01:22.448Z,8.90
2022-07-30T04:06:28.289Z,7.57
2022-07-30T04:11:41.631Z,9.90
2022-07-30T04:17:04.365Z,7.37
2022-07-30T04:22:12.663Z,8.83
2022-07-30T04:27:19.065Z,9.90
2022-07-30T04:32:26.677Z,7.80
2022-07-30T04:38:02.757Z,7.70
2022-07-30T04:43:08.074Z,9.53
2022-07-30T04:48:18.364Z,8.00
2022-07-30T04:53:51.309Z,7.97
2022-07-30T04:58:59.348Z,8.53
2022-07-30T05:04:10.764Z,9.93
2022-07-30T05:09:17.957Z,9.47
2022-07-30T05:14:23.153Z,9.10
2022-07-30T05:19:30.957Z,12.13
2022-07-30T05:24:35.868Z,11.53
2022-07-30T05:29:40.830Z,13.40
2022-07-30T05:34:55.150Z,12.97
2022-07-30T05:40:03.144Z,13.10
2022-07-30T05:45:47.316Z,12.00
2022-07-30T05:50:54.861Z,11.07
2022-07-30T05:56:01.234Z,12.57
2022-07-30T06:01:36.170Z,9.93
2022-07-30T06:06:52.133Z,11.40
2022-07-30T06:11:57.505Z,12.33
2022-07-30T06:17:03.374Z,10.47
2022-07-30T06:22:27.887Z,10.93
2022-07-30T06:27:39.578Z,9.10
2022-07-30T06:32:48.713Z,9.13
2022-07-30T06:38:07.458Z,11.70
2022-07-30T06:43:25.823Z,8.67
2022-07-30T06:48:46.950Z,10.07
2022-07-30T06:53:54.507Z,6.93
2022-07-30T06:59:20.803Z,8.03
2022-07-30T07:04:32.583Z,5.37
2022-07-30T07:09:44.662Z,6.10
2022-07-30T07:15:09.924Z,6.70
2022-07-30T07:20:16.250Z,4.63
2022-07-30T07:25:29.993Z,6.70
2022-07-30T07:30:35.320Z,7.90
2022-07-30T07:35:49.390Z,13.13
2022-07-30T07:41:07.707Z,8.53
2022-07-30T07:46:16.542Z,9.87
2022-07-30T07:51:47.066Z,6.03
2022-07-30T07:56:59.532Z,8.70
2022-07-30T08:02:16.675Z,10.17
2022-07-30T08:07:35.039Z,8.40
2022-07-30T08:12:51.735Z,8.30
2022-07-30T08:18:16.042Z,8.87
2022-07-30T08:23:33.110Z,6.43
2022-07-30T08:28:43.196Z,9.07
2022-07-30T08:33:48.345Z,6.60
2022-07-30T08:38:53.975Z,10.03
2022-07-30T08:44:03.860Z,7.07
2022-07-30T08:49:11.386Z,8.33
2022-07-30T08:54:23.880Z,8.90
2022-07-30T08:59:59.044Z,6.67
2022-07-30T09:04:57.864Z,7.47
2022-07-30T09:10:06.285Z,5.13
2022-07-30T09:15:17.918Z,9.53
2022-07-30T09:20:24.225Z,8.07
2022-07-30T09:25:38.384Z,10.30
2022-07-30T09:31:04.957Z,8.67
2022-07-30T09:36:35.031Z,9.70
2022-07-30T09:42:04.788Z,12.00
2022-07-30T09:47:12.610Z,9.00
2022-07-30T09:52:30.928Z,9.67
2022-07-30T09:57:37.495Z,5.93
2022-07-30T10:03:00.601Z,6.33
2022-07-30T10:08:46.190Z,8.70
2022-07-30T10:13:53.245Z,9.47
2022-07-30T10:19:03.630Z,8.43
2022-07-30T10:24:33.002Z,8.03
2022-07-30T10:30:03.533Z,8.73
2022-07-30T10:35:12.492Z,6.40
2022-07-30T10:40:40.957Z,8.23
2022-07-30T10:45:56.052Z,9.87
2022-07-30T10:51:04.183Z,5.40
2022-07-30T10:56:25.618Z,6.40
2022-07-30T11:02:14.946Z,8.33
2022-07-30T11:07:34.558Z,7.10
2022-07-30T11:12:55.953Z,7.03
2022-07-30T11:18:13.107Z,7.13
2022-07-30T11:23:40.773Z,8.57
2022-07-30T11:28:49.479Z,8.00
2022-07-30T11:34:17.234Z,6.00
2022-07-30T11:39:22.248Z,6.50
2022-07-30T11:44:39.486Z,6.10
2022-07-30T11:49:49.013Z,6.77
2022-07-30T11:54:56.310Z,4.47
2022-07-30T12:00:01.609Z,5.53
2022-07-30T12:05:10.653Z,7.73
2022-07-30T12:10:26.807Z,5.47
2022-07-30T12:15:34.185Z,5.43
2022-07-30T12:20:42.455Z,6.20
2022-07-30T12:25:47.792Z,6.63
2022-07-30T12:30:57.046Z,5.37
2022-07-30T12:36:04.525Z,7.03
2022-07-30T12:41:09.400Z,4.83
2022-07-30T12:46:16.466Z,4.23
2022-07-30T12:51:25.317Z,6.63
2022-07-30T12:56:33.685Z,5.47
2022-07-30T13:01:42.520Z,5.60
2022-07-30T13:07:07.224Z,5.27
2022-07-30T13:12:15.336Z,5.47
2022-07-30T13:17:21.437Z,5.07
2022-07-30T13:22:29.559Z,8.73
2022-07-30T13:27:34.843Z,4.97
2022-07-30T13:32:39.715Z,4.33
2022-07-30T13:37:47.279Z,5.00
2022-07-30T13:42:54.556Z,6.27
2022-07-30T13:48:00.123Z,3.87
2022-07-30T13:53:08.815Z,3.17
2022-07-30T13:58:13.870Z,5.13
2022-07-30T14:03:18.917Z,6.03
2022-07-30T14:08:28.678Z,7.27
2022-07-30T14:13:35.965Z,5.67
2022-07-30T14:18:40.921Z,2.93
2022-07-30T14:23:49.065Z,7.00
2022-07-30T14:28:54.005Z,4.70
2022-07-30T14:33:58.954Z,4.20
2022-07-30T14:39:07.612Z,3.07
2022-07-30T14:44:13.914Z,6.37
2022-07-30T14:49:22.622Z,2.70
2022-07-30T14:54:31.457Z,2.30
2022-07-30T14:59:36.475Z,4.77
2022-07-30T15:04:41.515Z,2.37
2022-07-30T15:09:49.021Z,3.70
2022-07-30T15:14:54.019Z,4.33
2022-07-30T15:19:59.094Z,3.77
2022-07-30T15:25:07.437Z,3.93
2022-07-30T15:30:14.063Z,2.73
2022-07-30T15:35:19.003Z,4.43
2022-07-30T15:40:26.615Z,5.67
2022-07-30T15:45:31.640Z,2.90
2022-07-30T15:50:56.483Z,3.47
2022-07-30T15:56:04.662Z,3.13
2022-07-30T16:01:09.691Z,2.67
2022-07-30T16:06:14.757Z,2.23
2022-07-30T16:11:22.289Z,2.77
2022-07-30T16:16:27.384Z,2.47
2022-07-30T16:21:32.256Z,3.30
2022-07-30T16:26:40.137Z,3.00
2022-07-30T16:31:45.041Z,2.60
2022-07-30T16:36:50.207Z,3.40
2022-07-30T16:41:57.789Z,3.53
2022-07-30T16:47:03.254Z,3.83
2022-07-30T16:52:08.610Z,3.67
2022-07-30T16:57:16.692Z,3.20
2022-07-30T17:02:21.648Z,4.50
2022-07-30T17:07:26.564Z,3.13
2022-07-30T17:12:34.127Z,1.97
2022-07-30T17:17:39.018Z,2.20
2022-07-30T17:22:44.021Z,4.80
2022-07-30T17:27:51.992Z,2.50
2022-07-30T17:32:57.336Z,3.50
2022-07-30T17:38:02.294Z,1.97
2022-07-30T17:43:11.656Z,3.60
2022-07-30T17:48:19.382Z,3.20
2022-07-30T17:53:24.441Z,4.50
2022-07-30T17:58:34.348Z,3.87
2022-07-30T18:03:39.165Z,3.27
2022-07-30T18:08:50.240Z,3.10
2022-07-30T18:13:57.774Z,3.03
2022-07-30T18:19:03.450Z,2.20
2022-07-30T18:24:09.405Z,5.53
2022-07-30T18:29:21.787Z,2.30
2022-07-30T18:34:26.743Z,2.27
2022-07-30T18:39:31.866Z,4.27
2022-07-30T18:44:41.972Z,2.33
2022-07-30T18:49:48.756Z,3.90
2022-07-30T18:54:53.707Z,1.40
2022-07-30T19:00:01.560Z,3.00
2022-07-30T19:05:08.125Z,3.70
2022-07-30T19:10:14.461Z,4.20
2022-07-30T19:15:22.125Z,2.30
2022-07-30T19:20:27.413Z,2.83
2022-07-30T19:25:33.924Z,6.23
2022-07-30T19:30:42.212Z,4.83
2022-07-30T19:35:47.374Z,5.47
2022-07-30T19:40:52.606Z,5.37
2022-07-30T19:46:00.106Z,9.63
2022-07-30T19:51:05.140Z,7.63
2022-07-30T19:56:20.873Z,7.10
2022-07-30T20:06:56.104Z,6.73
2022-07-30T20:12:03.811Z,7.90
2022-07-30T20:17:12.798Z,8.07
2022-07-30T20:22:20.001Z,7.20
2022-07-30T20:32:55.904Z,8.67
2022-07-30T20:38:03.887Z,9.63
2022-07-30T20:43:12.686Z,11.07
2022-07-30T20:48:25.408Z,14.10
2022-07-30T20:53:33.419Z,14.20
2022-07-30T20:58:41.758Z,12.40
2022-07-30T21:03:56.637Z,12.07
2022-07-30T21:09:02.366Z,11.43
2022-07-30T21:14:08.714Z,16.37
2022-07-30T21:19:18.526Z,16.57
2022-07-30T21:24:24.664Z,11.83
2022-07-30T21:29:29.735Z,13.77
2022-07-30T21:34:41.921Z,12.27
2022-07-30T21:39:47.231Z,12.07
2022-07-30T21:44:52.171Z,12.80
2022-07-30T21:50:00.103Z,11.30
2022-07-30T21:55:07.320Z,12.70
2022-07-30T22:00:21.933Z,13.20
2022-07-30T22:05:38.762Z,11.77
2022-07-30T22:10:45.618Z,13.03
2022-07-30T22:15:51.145Z,12.17
2022-07-30T22:20:58.948Z,11.93
2022-07-30T22:26:03.900Z,13.50
2022-07-30T22:31:14.156Z,11.53
2022-07-30T22:36:24.670Z,13.13
2022-07-30T22:41:30.253Z,11.30
2022-07-30T22:46:37.780Z,12.83
2022-07-30T22:52:01.086Z,13.40
2022-07-30T22:57:10.801Z,14.60
2022-07-30T23:02:16.156Z,12.40
2022-07-30T23:07:29.173Z,12.80
2022-07-30T23:12:15.623Z,5.33
2022-07-30T23:12:19.636Z,11.03
2022-07-30T23:12:44.874Z,13.73
2022-07-30T23:17:50.729Z,12.03
2022-07-30T23:22:58.346Z,12.73
2022-07-30T23:28:04.179Z,12.37
2022-07-30T23:33:09.137Z,12.73
2022-07-30T23:38:16.982Z,12.63
2022-07-30T23:43:21.965Z,13.10
2022-07-30T23:48:28.260Z,13.87
2022-07-30T23:53:36.865Z,12.97
2022-07-30T23:58:42.498Z,11.80
